sensor_id;sensor_type;location;lat;lon;timestamp;P1;durP1;ratioP1;P2;durP2;ratioP2
11539;SDS011;5826;54.756;9.192;2024-01-15T00:00:38;9.87;;;2.10;;
11539;SDS011;5826;54.756;9.192;2024-01-15T00:03:04;14.07;;;2.13;;
11539;SDS011;5826;54.756;9.192;2024-01-15T00:05:29;9.03;;;1.97;;
11539;SDS011;5826;54.756;9.192;2024-01-15T00:07:55;11.77;;;2.27;;
11539;SDS011;5826;54.756;9.192;2024-01-15T00:10:20;10.00;;;2.20;;
11539;SDS011;5826;54.756;9.192;2024-01-15T00:12:46;10.00;;;2.07;;
11539;SDS011;5826;54.756;9.192;2024-01-15T00:15:11;14.27;;;2.50;;
11539;SDS011;5826;54.756;9.192;2024-01-15T00:17:37;12.27;;;2.37;;
11539;SDS011;5826;54.756;9.192;2024-01-15T00:20:02;9.73;;;2.53;;
11539;SDS011;5826;54.756;9.192;2024-01-15T00:22:28;12.27;;;2.47;;
11539;SDS011;5826;54.756;9.192;2024-01-15T00:24:54;11.70;;;2.63;;
11539;SDS011;5826;54.756;9.192;2024-01-15T00:27:19;11.93;;;2.27;;
11539;SDS011;5826;54.756;9.192;2024-01-15T00:29:45;10.57;;;2.30;;
11539;SDS011;5826;54.756;9.192;2024-01-15T00:32:10;14.97;;;2.33;;
11539;SDS011;5826;54.756;9.192;2024-01-15T00:34:36;6.40;;;1.73;;
11539;SDS011;5826;54.756;9.192;2024-01-15T00:37:02;11.83;;;2.40;;
11539;SDS011;5826;54.756;9.192;2024-01-15T00:39:27;6.93;;;2.07;;
11539;SDS011;5826;54.756;9.192;2024-01-15T00:41:53;10.00;;;2.07;;
11539;SDS011;5826;54.756;9.192;2024-01-15T00:44:18;5.90;;;1.50;;
11539;SDS011;5826;54.756;9.192;2024-01-15T00:46:44;6.53;;;1.93;;
11539;SDS011;5826;54.756;9.192;2024-01-15T00:49:10;9.67;;;2.13;;
11539;SDS011;5826;54.756;9.192;2024-01-15T00:51:37;9.23;;;2.03;;
11539;SDS011;5826;54.756;9.192;2024-01-15T00:54:02;10.37;;;2.00;;
11539;SDS011;5826;54.756;9.192;2024-01-15T00:56:28;10.50;;;2.33;;
11539;SDS011;5826;54.756;9.192;2024-01-15T00:58:53;9.47;;;2.23;;
11539;SDS011;5826;54.756;9.192;2024-01-15T01:01:19;7.07;;;1.70;;
11539;SDS011;5826;54.756;9.192;2024-01-15T01:03:44;6.73;;;1.73;;
11539;SDS011;5826;54.756;9.192;2024-01-15T01:06:09;12.97;;;2.33;;
11539;SDS011;5826;54.756;9.192;2024-01-15T01:08:35;6.17;;;1.50;;
11539;SDS011;5826;54.756;9.192;2024-01-15T01:11:00;6.83;;;1.70;;
11539;SDS011;5826;54.756;9.192;2024-01-15T01:13:26;8.20;;;1.73;;
11539;SDS011;5826;54.756;9.192;2024-01-15T01:15:51;8.10;;;1.77;;
11539;SDS011;5826;54.756;9.192;2024-01-15T01:18:17;5.33;;;1.70;;
11539;SDS011;5826;54.756;9.192;2024-01-15T01:20:42;5.73;;;1.63;;
11539;SDS011;5826;54.756;9.192;2024-01-15T01:23:08;6.63;;;1.57;;
11539;SDS011;5826;54.756;9.192;2024-01-15T01:25:33;7.77;;;1.30;;
11539;SDS011;5826;54.756;9.192;2024-01-15T01:27:59;9.80;;;1.80;;
11539;SDS011;5826;54.756;9.192;2024-01-15T01:30:24;8.70;;;1.80;;
11539;SDS011;5826;54.756;9.192;2024-01-15T01:32:50;8.83;;;1.97;;
11539;SDS011;5826;54.756;9.192;2024-01-15T01:35:15;6.17;;;1.47;;
11539;SDS011;5826;54.756;9.192;2024-01-15T01:37:41;4.20;;;1.37;;
11539;SDS011;5826;54.756;9.192;2024-01-15T01:40:06;5.77;;;1.50;;
11539;SDS011;5826;54.756;9.192;2024-01-15T01:42:32;4.33;;;1.17;;
11539;SDS011;5826;54.756;9.192;2024-01-15T01:44:58;4.20;;;1.37;;
11539;SDS011;5826;54.756;9.192;2024-01-15T01:47:23;7.57;;;1.67;;
11539;SDS011;5826;54.756;9.192;2024-01-15T01:49:51;7.30;;;1.80;;
11539;SDS011;5826;54.756;9.192;2024-01-15T01:52:17;5.17;;;1.40;;
11539;SDS011;5826;54.756;9.192;2024-01-15T01:54:43;5.87;;;1.30;;
11539;SDS011;5826;54.756;9.192;2024-01-15T01:57:09;7.80;;;1.50;;
11539;SDS011;5826;54.756;9.192;2024-01-15T01:59:37;8.43;;;1.73;;
11539;SDS011;5826;54.756;9.192;2024-01-15T02:02:03;10.00;;;1.90;;
11539;SDS011;5826;54.756;9.192;2024-01-15T02:04:30;8.73;;;2.27;;
11539;SDS011;5826;54.756;9.192;2024-01-15T02:06:56;6.17;;;1.60;;
11539;SDS011;5826;54.756;9.192;2024-01-15T02:09:22;7.37;;;1.67;;
11539;SDS011;5826;54.756;9.192;2024-01-15T02:11:47;9.57;;;1.67;;
11539;SDS011;5826;54.756;9.192;2024-01-15T02:14:13;9.67;;;2.00;;
11539;SDS011;5826;54.756;9.192;2024-01-15T02:16:39;8.80;;;2.03;;
11539;SDS011;5826;54.756;9.192;2024-01-15T02:19:05;7.40;;;1.70;;
11539;SDS011;5826;54.756;9.192;2024-01-15T02:21:31;6.57;;;1.83;;
11539;SDS011;5826;54.756;9.192;2024-01-15T02:23:57;5.80;;;1.77;;
11539;SDS011;5826;54.756;9.192;2024-01-15T02:26:23;6.03;;;1.33;;
11539;SDS011;5826;54.756;9.192;2024-01-15T02:28:48;10.33;;;1.83;;
11539;SDS011;5826;54.756;9.192;2024-01-15T02:31:16;13.70;;;2.10;;
11539;SDS011;5826;54.756;9.192;2024-01-15T02:33:42;6.00;;;1.80;;
11539;SDS011;5826;54.756;9.192;2024-01-15T02:36:08;10.43;;;1.37;;
11539;SDS011;5826;54.756;9.192;2024-01-15T02:38:34;10.13;;;2.10;;
11539;SDS011;5826;54.756;9.192;2024-01-15T02:40:59;13.13;;;2.77;;
11539;SDS011;5826;54.756;9.192;2024-01-15T02:43:25;7.80;;;1.60;;
11539;SDS011;5826;54.756;9.192;2024-01-15T02:45:50;10.27;;;1.77;;
11539;SDS011;5826;54.756;9.192;2024-01-15T02:48:16;7.60;;;1.57;;
11539;SDS011;5826;54.756;9.192;2024-01-15T02:50:41;7.90;;;1.77;;
11539;SDS011;5826;54.756;9.192;2024-01-15T02:53:07;8.57;;;1.90;;
11539;SDS011;5826;54.756;9.192;2024-01-15T02:55:32;7.93;;;1.50;;
11539;SDS011;5826;54.756;9.192;2024-01-15T02:57:58;6.83;;;1.50;;
11539;SDS011;5826;54.756;9.192;2024-01-15T03:00:24;8.83;;;1.60;;
11539;SDS011;5826;54.756;9.192;2024-01-15T03:02:50;11.33;;;1.87;;
11539;SDS011;5826;54.756;9.192;2024-01-15T03:05:16;9.53;;;1.47;;
11539;SDS011;5826;54.756;9.192;2024-01-15T03:07:41;6.13;;;1.53;;
11539;SDS011;5826;54.756;9.192;2024-01-15T03:10:07;4.87;;;1.53;;
11539;SDS011;5826;54.756;9.192;2024-01-15T03:12:33;4.30;;;1.40;;
11539;SDS011;5826;54.756;9.192;2024-01-15T03:14:59;7.97;;;1.40;;
11539;SDS011;5826;54.756;9.192;2024-01-15T03:17:24;8.13;;;1.73;;
11539;SDS011;5826;54.756;9.192;2024-01-15T03:19:50;5.47;;;1.10;;
11539;SDS011;5826;54.756;9.192;2024-01-15T03:22:16;6.37;;;1.50;;
11539;SDS011;5826;54.756;9.192;2024-01-15T03:24:42;9.77;;;1.20;;
11539;SDS011;5826;54.756;9.192;2024-01-15T03:27:08;9.03;;;1.63;;
11539;SDS011;5826;54.756;9.192;2024-01-15T03:29:33;7.00;;;1.60;;
11539;SDS011;5826;54.756;9.192;2024-01-15T03:31:59;5.87;;;1.40;;
11539;SDS011;5826;54.756;9.192;2024-01-15T03:34:24;6.97;;;1.93;;
11539;SDS011;5826;54.756;9.192;2024-01-15T03:36:50;7.63;;;1.47;;
11539;SDS011;5826;54.756;9.192;2024-01-15T03:39:15;6.80;;;1.70;;
11539;SDS011;5826;54.756;9.192;2024-01-15T03:41:41;8.83;;;1.63;;
11539;SDS011;5826;54.756;9.192;2024-01-15T03:44:06;7.93;;;1.80;;
11539;SDS011;5826;54.756;9.192;2024-01-15T03:46:32;4.27;;;1.20;;
11539;SDS011;5826;54.756;9.192;2024-01-15T03:48:57;5.77;;;1.83;;
11539;SDS011;5826;54.756;9.192;2024-01-15T03:51:23;8.63;;;1.90;;
11539;SDS011;5826;54.756;9.192;2024-01-15T03:53:48;9.27;;;2.30;;
11539;SDS011;5826;54.756;9.192;2024-01-15T03:56:14;5.23;;;1.40;;
11539;SDS011;5826;54.756;9.192;2024-01-15T03:58:39;7.23;;;1.67;;
11539;SDS011;5826;54.756;9.192;2024-01-15T04:01:11;9.00;;;1.83;;
11539;SDS011;5826;54.756;9.192;2024-01-15T04:03:37;8.00;;;1.40;;
11539;SDS011;5826;54.756;9.192;2024-01-15T04:06:03;6.60;;;1.40;;
11539;SDS011;5826;54.756;9.192;2024-01-15T04:08:29;6.30;;;1.33;;
11539;SDS011;5826;54.756;9.192;2024-01-15T04:10:54;7.00;;;1.40;;
11539;SDS011;5826;54.756;9.192;2024-01-15T04:13:20;7.07;;;1.50;;
11539;SDS011;5826;54.756;9.192;2024-01-15T04:15:46;8.13;;;1.80;;
11539;SDS011;5826;54.756;9.192;2024-01-15T04:18:11;4.83;;;1.07;;
11539;SDS011;5826;54.756;9.192;2024-01-15T04:20:37;6.37;;;1.43;;
11539;SDS011;5826;54.756;9.192;2024-01-15T04:23:03;4.20;;;1.20;;
11539;SDS011;5826;54.756;9.192;2024-01-15T04:25:29;6.13;;;1.40;;
11539;SDS011;5826;54.756;9.192;2024-01-15T04:27:55;5.67;;;1.03;;
11539;SDS011;5826;54.756;9.192;2024-01-15T04:30:20;2.23;;;0.70;;
11539;SDS011;5826;54.756;9.192;2024-01-15T04:32:46;6.77;;;1.53;;
11539;SDS011;5826;54.756;9.192;2024-01-15T04:35:11;4.70;;;1.53;;
11539;SDS011;5826;54.756;9.192;2024-01-15T04:37:37;5.03;;;1.07;;
11539;SDS011;5826;54.756;9.192;2024-01-15T04:40:03;3.17;;;1.07;;
11539;SDS011;5826;54.756;9.192;2024-01-15T04:42:29;1.77;;;0.70;;
11539;SDS011;5826;54.756;9.192;2024-01-15T04:44:55;1.47;;;0.60;;
11539;SDS011;5826;54.756;9.192;2024-01-15T04:47:20;5.00;;;1.10;;
11539;SDS011;5826;54.756;9.192;2024-01-15T04:49:45;3.83;;;0.90;;
11539;SDS011;5826;54.756;9.192;2024-01-15T04:52:11;4.80;;;0.70;;
11539;SDS011;5826;54.756;9.192;2024-01-15T04:54:37;2.70;;;0.80;;
11539;SDS011;5826;54.756;9.192;2024-01-15T04:57:03;3.23;;;1.10;;
11539;SDS011;5826;54.756;9.192;2024-01-15T04:59:28;2.30;;;0.57;;
11539;SDS011;5826;54.756;9.192;2024-01-15T05:01:54;3.50;;;0.90;;
11539;SDS011;5826;54.756;9.192;2024-01-15T05:04:20;5.30;;;1.37;;
11539;SDS011;5826;54.756;9.192;2024-01-15T05:06:46;2.97;;;0.67;;
11539;SDS011;5826;54.756;9.192;2024-01-15T05:09:11;4.73;;;1.00;;
11539;SDS011;5826;54.756;9.192;2024-01-15T05:11:38;2.57;;;0.70;;
11539;SDS011;5826;54.756;9.192;2024-01-15T05:14:04;5.47;;;0.80;;
11539;SDS011;5826;54.756;9.192;2024-01-15T05:16:29;2.03;;;0.73;;
11539;SDS011;5826;54.756;9.192;2024-01-15T05:18:55;3.63;;;1.03;;
11539;SDS011;5826;54.756;9.192;2024-01-15T05:21:20;2.87;;;1.00;;
11539;SDS011;5826;54.756;9.192;2024-01-15T05:23:46;3.10;;;1.00;;
11539;SDS011;5826;54.756;9.192;2024-01-15T05:26:11;3.17;;;0.93;;
11539;SDS011;5826;54.756;9.192;2024-01-15T05:28:37;4.13;;;1.00;;
11539;SDS011;5826;54.756;9.192;2024-01-15T05:31:02;4.27;;;0.70;;
11539;SDS011;5826;54.756;9.192;2024-01-15T05:33:29;2.57;;;1.03;;
11539;SDS011;5826;54.756;9.192;2024-01-15T05:35:54;2.30;;;0.90;;
11539;SDS011;5826;54.756;9.192;2024-01-15T05:38:20;3.03;;;0.70;;
11539;SDS011;5826;54.756;9.192;2024-01-15T05:40:45;1.93;;;0.77;;
11539;SDS011;5826;54.756;9.192;2024-01-15T05:43:11;6.30;;;0.97;;
11539;SDS011;5826;54.756;9.192;2024-01-15T05:45:38;5.60;;;1.30;;
11539;SDS011;5826;54.756;9.192;2024-01-15T05:48:03;4.00;;;0.73;;
11539;SDS011;5826;54.756;9.192;2024-01-15T05:50:29;2.57;;;0.90;;
11539;SDS011;5826;54.756;9.192;2024-01-15T05:52:55;2.20;;;0.83;;
11539;SDS011;5826;54.756;9.192;2024-01-15T05:55:20;4.90;;;1.00;;
11539;SDS011;5826;54.756;9.192;2024-01-15T05:57:46;2.70;;;1.30;;
11539;SDS011;5826;54.756;9.192;2024-01-15T06:00:11;5.53;;;2.47;;
11539;SDS011;5826;54.756;9.192;2024-01-15T06:02:37;5.77;;;2.17;;
11539;SDS011;5826;54.756;9.192;2024-01-15T06:05:04;3.67;;;1.70;;
11539;SDS011;5826;54.756;9.192;2024-01-15T06:07:30;6.67;;;1.87;;
11539;SDS011;5826;54.756;9.192;2024-01-15T06:09:55;7.07;;;2.67;;
11539;SDS011;5826;54.756;9.192;2024-01-15T06:12:24;4.60;;;1.67;;
11539;SDS011;5826;54.756;9.192;2024-01-15T06:14:49;5.33;;;1.83;;
11539;SDS011;5826;54.756;9.192;2024-01-15T06:17:15;3.57;;;1.53;;
11539;SDS011;5826;54.756;9.192;2024-01-15T06:19:40;5.70;;;1.47;;
11539;SDS011;5826;54.756;9.192;2024-01-15T06:22:05;7.53;;;2.23;;
11539;SDS011;5826;54.756;9.192;2024-01-15T06:24:31;8.23;;;3.50;;
11539;SDS011;5826;54.756;9.192;2024-01-15T06:26:57;3.90;;;2.33;;
11539;SDS011;5826;54.756;9.192;2024-01-15T06:29:24;4.90;;;2.03;;
11539;SDS011;5826;54.756;9.192;2024-01-15T06:31:51;4.20;;;1.73;;
11539;SDS011;5826;54.756;9.192;2024-01-15T06:34:16;5.07;;;2.47;;
11539;SDS011;5826;54.756;9.192;2024-01-15T06:36:42;2.93;;;1.70;;
11539;SDS011;5826;54.756;9.192;2024-01-15T06:39:08;5.67;;;1.57;;
11539;SDS011;5826;54.756;9.192;2024-01-15T06:41:34;6.23;;;1.50;;
11539;SDS011;5826;54.756;9.192;2024-01-15T06:44:00;4.60;;;1.10;;
11539;SDS011;5826;54.756;9.192;2024-01-15T06:46:26;3.43;;;1.37;;
11539;SDS011;5826;54.756;9.192;2024-01-15T06:48:51;4.53;;;1.27;;
11539;SDS011;5826;54.756;9.192;2024-01-15T06:51:17;2.17;;;0.90;;
11539;SDS011;5826;54.756;9.192;2024-01-15T06:53:42;4.17;;;1.00;;
11539;SDS011;5826;54.756;9.192;2024-01-15T06:56:08;2.27;;;0.90;;
11539;SDS011;5826;54.756;9.192;2024-01-15T06:58:33;2.37;;;0.90;;
11539;SDS011;5826;54.756;9.192;2024-01-15T07:00:59;2.47;;;0.93;;
11539;SDS011;5826;54.756;9.192;2024-01-15T07:03:24;4.20;;;1.23;;
11539;SDS011;5826;54.756;9.192;2024-01-15T07:05:50;3.00;;;1.17;;
11539;SDS011;5826;54.756;9.192;2024-01-15T07:08:16;4.57;;;1.43;;
11539;SDS011;5826;54.756;9.192;2024-01-15T07:10:41;4.77;;;1.10;;
11539;SDS011;5826;54.756;9.192;2024-01-15T07:13:07;4.67;;;1.03;;
11539;SDS011;5826;54.756;9.192;2024-01-15T07:15:33;3.30;;;1.20;;
11539;SDS011;5826;54.756;9.192;2024-01-15T07:17:59;2.37;;;0.80;;
11539;SDS011;5826;54.756;9.192;2024-01-15T07:20:24;3.07;;;0.90;;
11539;SDS011;5826;54.756;9.192;2024-01-15T07:22:50;3.80;;;0.87;;
11539;SDS011;5826;54.756;9.192;2024-01-15T07:25:15;4.37;;;1.00;;
11539;SDS011;5826;54.756;9.192;2024-01-15T07:27:41;4.30;;;0.80;;
11539;SDS011;5826;54.756;9.192;2024-01-15T07:30:09;4.00;;;0.80;;
11539;SDS011;5826;54.756;9.192;2024-01-15T07:32:36;4.10;;;0.90;;
11539;SDS011;5826;54.756;9.192;2024-01-15T07:35:02;3.37;;;0.90;;
11539;SDS011;5826;54.756;9.192;2024-01-15T07:37:27;1.43;;;0.50;;
11539;SDS011;5826;54.756;9.192;2024-01-15T07:39:53;2.50;;;0.90;;
11539;SDS011;5826;54.756;9.192;2024-01-15T07:42:19;3.67;;;0.90;;
11539;SDS011;5826;54.756;9.192;2024-01-15T07:44:44;3.30;;;0.90;;
11539;SDS011;5826;54.756;9.192;2024-01-15T07:47:10;2.30;;;0.90;;
11539;SDS011;5826;54.756;9.192;2024-01-15T07:49:35;1.80;;;0.70;;
11539;SDS011;5826;54.756;9.192;2024-01-15T07:52:01;3.10;;;0.70;;
11539;SDS011;5826;54.756;9.192;2024-01-15T07:54:27;2.23;;;0.60;;
11539;SDS011;5826;54.756;9.192;2024-01-15T07:56:53;1.83;;;0.90;;
11539;SDS011;5826;54.756;9.192;2024-01-15T07:59:22;2.00;;;0.90;;
11539;SDS011;5826;54.756;9.192;2024-01-15T08:01:48;1.63;;;0.80;;
11539;SDS011;5826;54.756;9.192;2024-01-15T08:04:14;2.03;;;0.73;;
11539;SDS011;5826;54.756;9.192;2024-01-15T08:06:39;1.80;;;0.80;;
11539;SDS011;5826;54.756;9.192;2024-01-15T08:09:05;3.30;;;0.70;;
11539;SDS011;5826;54.756;9.192;2024-01-15T08:11:31;1.73;;;0.57;;
11539;SDS011;5826;54.756;9.192;2024-01-15T08:13:57;1.23;;;0.60;;
11539;SDS011;5826;54.756;9.192;2024-01-15T08:16:22;1.00;;;0.50;;
11539;SDS011;5826;54.756;9.192;2024-01-15T08:18:50;1.03;;;0.50;;
11539;SDS011;5826;54.756;9.192;2024-01-15T08:21:15;2.23;;;0.83;;
11539;SDS011;5826;54.756;9.192;2024-01-15T08:23:41;1.20;;;0.50;;
11539;SDS011;5826;54.756;9.192;2024-01-15T08:26:06;4.23;;;1.13;;
11539;SDS011;5826;54.756;9.192;2024-01-15T08:28:32;2.83;;;0.80;;
11539;SDS011;5826;54.756;9.192;2024-01-15T08:30:58;1.27;;;0.57;;
11539;SDS011;5826;54.756;9.192;2024-01-15T08:33:23;2.13;;;0.60;;
11539;SDS011;5826;54.756;9.192;2024-01-15T08:35:49;0.60;;;0.40;;
11539;SDS011;5826;54.756;9.192;2024-01-15T08:38:14;1.13;;;0.50;;
11539;SDS011;5826;54.756;9.192;2024-01-15T08:40:40;1.03;;;0.50;;
11539;SDS011;5826;54.756;9.192;2024-01-15T08:43:05;2.17;;;0.60;;
11539;SDS011;5826;54.756;9.192;2024-01-15T08:45:31;1.53;;;0.53;;
11539;SDS011;5826;54.756;9.192;2024-01-15T08:47:58;1.77;;;0.67;;
11539;SDS011;5826;54.756;9.192;2024-01-15T08:50:23;2.70;;;0.80;;
11539;SDS011;5826;54.756;9.192;2024-01-15T08:52:49;1.87;;;0.57;;
11539;SDS011;5826;54.756;9.192;2024-01-15T08:55:14;2.67;;;0.80;;
11539;SDS011;5826;54.756;9.192;2024-01-15T08:57:40;3.13;;;1.00;;
11539;SDS011;5826;54.756;9.192;2024-01-15T09:00:05;3.53;;;0.70;;
11539;SDS011;5826;54.756;9.192;2024-01-15T09:02:33;2.23;;;0.50;;
11539;SDS011;5826;54.756;9.192;2024-01-15T09:04:59;1.57;;;0.67;;
11539;SDS011;5826;54.756;9.192;2024-01-15T09:07:25;1.57;;;0.50;;
11539;SDS011;5826;54.756;9.192;2024-01-15T09:09:52;2.90;;;0.70;;
11539;SDS011;5826;54.756;9.192;2024-01-15T09:12:18;1.70;;;0.60;;
11539;SDS011;5826;54.756;9.192;2024-01-15T09:14:45;0.97;;;0.50;;
11539;SDS011;5826;54.756;9.192;2024-01-15T09:17:11;0.87;;;0.67;;
11539;SDS011;5826;54.756;9.192;2024-01-15T09:19:37;1.57;;;0.57;;
11539;SDS011;5826;54.756;9.192;2024-01-15T09:22:04;1.80;;;0.80;;
11539;SDS011;5826;54.756;9.192;2024-01-15T09:24:30;1.53;;;0.90;;
11539;SDS011;5826;54.756;9.192;2024-01-15T09:26:56;1.97;;;0.70;;
11539;SDS011;5826;54.756;9.192;2024-01-15T09:29:21;1.13;;;0.73;;
11539;SDS011;5826;54.756;9.192;2024-01-15T09:31:48;1.90;;;1.23;;
11539;SDS011;5826;54.756;9.192;2024-01-15T09:34:15;1.50;;;0.80;;
11539;SDS011;5826;54.756;9.192;2024-01-15T09:36:41;1.77;;;0.60;;
11539;SDS011;5826;54.756;9.192;2024-01-15T09:39:07;0.73;;;0.70;;
11539;SDS011;5826;54.756;9.192;2024-01-15T09:41:36;1.80;;;0.67;;
11539;SDS011;5826;54.756;9.192;2024-01-15T09:44:05;1.83;;;0.80;;
11539;SDS011;5826;54.756;9.192;2024-01-15T09:46:33;3.27;;;0.90;;
11539;SDS011;5826;54.756;9.192;2024-01-15T09:48:59;2.30;;;0.70;;
11539;SDS011;5826;54.756;9.192;2024-01-15T09:51:26;2.83;;;0.87;;
11539;SDS011;5826;54.756;9.192;2024-01-15T09:53:55;1.40;;;0.57;;
11539;SDS011;5826;54.756;9.192;2024-01-15T09:56:23;0.90;;;0.60;;
11539;SDS011;5826;54.756;9.192;2024-01-15T09:58:49;1.50;;;0.60;;
11539;SDS011;5826;54.756;9.192;2024-01-15T10:01:17;2.10;;;0.70;;
11539;SDS011;5826;54.756;9.192;2024-01-15T10:03:47;1.33;;;0.60;;
11539;SDS011;5826;54.756;9.192;2024-01-15T10:06:16;1.33;;;0.60;;
11539;SDS011;5826;54.756;9.192;2024-01-15T10:08:42;1.80;;;0.63;;
11539;SDS011;5826;54.756;9.192;2024-01-15T10:11:16;2.17;;;0.67;;
11539;SDS011;5826;54.756;9.192;2024-01-15T10:13:45;2.60;;;0.63;;
11539;SDS011;5826;54.756;9.192;2024-01-15T10:16:18;2.60;;;0.57;;
11539;SDS011;5826;54.756;9.192;2024-01-15T10:18:47;0.77;;;0.50;;
11539;SDS011;5826;54.756;9.192;2024-01-15T10:21:12;3.37;;;0.83;;
11539;SDS011;5826;54.756;9.192;2024-01-15T10:23:39;2.00;;;0.50;;
11539;SDS011;5826;54.756;9.192;2024-01-15T10:26:04;1.40;;;0.73;;
11539;SDS011;5826;54.756;9.192;2024-01-15T10:28:30;1.67;;;0.60;;
11539;SDS011;5826;54.756;9.192;2024-01-15T10:30:57;2.20;;;0.60;;
11539;SDS011;5826;54.756;9.192;2024-01-15T10:33:26;2.23;;;0.60;;
11539;SDS011;5826;54.756;9.192;2024-01-15T10:35:56;1.37;;;0.63;;
11539;SDS011;5826;54.756;9.192;2024-01-15T10:38:24;1.17;;;0.50;;
11539;SDS011;5826;54.756;9.192;2024-01-15T10:40:56;0.80;;;0.40;;
11539;SDS011;5826;54.756;9.192;2024-01-15T10:43:22;2.73;;;0.80;;
11539;SDS011;5826;54.756;9.192;2024-01-15T10:45:48;1.23;;;0.60;;
11539;SDS011;5826;54.756;9.192;2024-01-15T10:48:18;1.30;;;0.60;;
11539;SDS011;5826;54.756;9.192;2024-01-15T10:50:47;0.73;;;0.40;;
11539;SDS011;5826;54.756;9.192;2024-01-15T10:53:14;1.50;;;0.50;;
11539;SDS011;5826;54.756;9.192;2024-01-15T10:55:41;1.57;;;0.60;;
11539;SDS011;5826;54.756;9.192;2024-01-15T10:58:07;0.97;;;0.47;;
11539;SDS011;5826;54.756;9.192;2024-01-15T11:00:37;1.53;;;0.40;;
11539;SDS011;5826;54.756;9.192;2024-01-15T11:03:04;2.63;;;0.60;;
11539;SDS011;5826;54.756;9.192;2024-01-15T11:05:33;1.60;;;0.77;;
11539;SDS011;5826;54.756;9.192;2024-01-15T11:08:01;2.07;;;0.63;;
11539;SDS011;5826;54.756;9.192;2024-01-15T11:10:43;3.33;;;0.83;;
11539;SDS011;5826;54.756;9.192;2024-01-15T11:13:48;1.83;;;0.70;;
11539;SDS011;5826;54.756;9.192;2024-01-15T11:16:09;2.10;;;0.70;;
11539;SDS011;5826;54.756;9.192;2024-01-15T11:18:40;1.97;;;0.67;;
11539;SDS011;5826;54.756;9.192;2024-01-15T11:28:57;1.00;;;0.50;;
11539;SDS011;5826;54.756;9.192;2024-01-15T11:31:28;0.70;;;0.70;;
11539;SDS011;5826;54.756;9.192;2024-01-15T11:34:14;0.90;;;0.47;;
11539;SDS011;5826;54.756;9.192;2024-01-15T11:41:57;1.57;;;0.57;;
11539;SDS011;5826;54.756;9.192;2024-01-15T11:44:24;1.60;;;0.70;;
11539;SDS011;5826;54.756;9.192;2024-01-15T11:46:57;0.63;;;0.43;;
11539;SDS011;5826;54.756;9.192;2024-01-15T11:49:42;2.10;;;0.50;;
11539;SDS011;5826;54.756;9.192;2024-01-15T11:52:27;2.10;;;0.60;;
11539;SDS011;5826;54.756;9.192;2024-01-15T11:57:33;1.40;;;0.60;;
11539;SDS011;5826;54.756;9.192;2024-01-15T12:00:16;1.80;;;0.50;;
11539;SDS011;5826;54.756;9.192;2024-01-15T12:02:43;2.03;;;0.83;;
11539;SDS011;5826;54.756;9.192;2024-01-15T12:05:10;1.13;;;0.43;;
11539;SDS011;5826;54.756;9.192;2024-01-15T12:07:38;0.90;;;0.50;;
11539;SDS011;5826;54.756;9.192;2024-01-15T12:10:10;1.43;;;0.50;;
11539;SDS011;5826;54.756;9.192;2024-01-15T12:15:12;1.60;;;0.57;;
11539;SDS011;5826;54.756;9.192;2024-01-15T12:17:38;0.67;;;0.53;;
11539;SDS011;5826;54.756;9.192;2024-01-15T12:20:04;3.60;;;0.70;;
11539;SDS011;5826;54.756;9.192;2024-01-15T12:22:30;3.20;;;0.70;;
11539;SDS011;5826;54.756;9.192;2024-01-15T12:24:55;0.90;;;0.50;;
11539;SDS011;5826;54.756;9.192;2024-01-15T12:27:22;0.77;;;0.40;;
11539;SDS011;5826;54.756;9.192;2024-01-15T12:29:49;0.97;;;0.50;;
11539;SDS011;5826;54.756;9.192;2024-01-15T12:32:14;1.03;;;0.50;;
11539;SDS011;5826;54.756;9.192;2024-01-15T12:34:39;1.77;;;0.60;;
11539;SDS011;5826;54.756;9.192;2024-01-15T12:37:06;2.20;;;0.70;;
11539;SDS011;5826;54.756;9.192;2024-01-15T12:39:35;2.13;;;0.73;;
11539;SDS011;5826;54.756;9.192;2024-01-15T12:42:01;0.83;;;0.50;;
11539;SDS011;5826;54.756;9.192;2024-01-15T12:44:28;1.37;;;0.60;;
11539;SDS011;5826;54.756;9.192;2024-01-15T12:46:53;2.10;;;0.70;;
11539;SDS011;5826;54.756;9.192;2024-01-15T12:49:19;2.70;;;0.67;;
11539;SDS011;5826;54.756;9.192;2024-01-15T12:51:52;1.47;;;0.60;;
11539;SDS011;5826;54.756;9.192;2024-01-15T12:54:26;1.73;;;0.60;;
11539;SDS011;5826;54.756;9.192;2024-01-15T12:56:52;1.27;;;0.47;;
11539;SDS011;5826;54.756;9.192;2024-01-15T12:59:17;1.53;;;0.50;;
11539;SDS011;5826;54.756;9.192;2024-01-15T13:01:44;1.73;;;0.70;;
11539;SDS011;5826;54.756;9.192;2024-01-15T13:04:11;1.93;;;0.90;;
11539;SDS011;5826;54.756;9.192;2024-01-15T13:06:37;1.80;;;0.60;;
11539;SDS011;5826;54.756;9.192;2024-01-15T13:09:03;1.10;;;0.57;;
11539;SDS011;5826;54.756;9.192;2024-01-15T13:11:34;1.50;;;0.50;;
11539;SDS011;5826;54.756;9.192;2024-01-15T13:13:59;2.10;;;0.83;;
11539;SDS011;5826;54.756;9.192;2024-01-15T13:16:25;1.23;;;0.70;;
11539;SDS011;5826;54.756;9.192;2024-01-15T13:18:54;1.37;;;0.50;;
11539;SDS011;5826;54.756;9.192;2024-01-15T13:21:20;1.47;;;0.80;;
11539;SDS011;5826;54.756;9.192;2024-01-15T13:23:46;2.10;;;0.80;;
11539;SDS011;5826;54.756;9.192;2024-01-15T13:26:11;1.43;;;0.50;;
11539;SDS011;5826;54.756;9.192;2024-01-15T13:28:37;1.80;;;0.60;;
11539;SDS011;5826;54.756;9.192;2024-01-15T13:31:03;1.13;;;0.40;;
11539;SDS011;5826;54.756;9.192;2024-01-15T13:33:29;1.43;;;0.60;;
11539;SDS011;5826;54.756;9.192;2024-01-15T13:35:55;1.77;;;0.70;;
11539;SDS011;5826;54.756;9.192;2024-01-15T13:38:20;2.17;;;0.70;;
11539;SDS011;5826;54.756;9.192;2024-01-15T13:40:46;1.60;;;0.73;;
11539;SDS011;5826;54.756;9.192;2024-01-15T13:43:11;0.67;;;0.50;;
11539;SDS011;5826;54.756;9.192;2024-01-15T13:45:39;2.30;;;0.60;;
11539;SDS011;5826;54.756;9.192;2024-01-15T13:48:06;1.30;;;0.50;;
11539;SDS011;5826;54.756;9.192;2024-01-15T13:50:33;1.67;;;0.57;;
11539;SDS011;5826;54.756;9.192;2024-01-15T13:53:00;1.53;;;0.63;;
11539;SDS011;5826;54.756;9.192;2024-01-15T13:55:25;0.87;;;0.60;;
11539;SDS011;5826;54.756;9.192;2024-01-15T13:57:51;0.87;;;0.60;;
11539;SDS011;5826;54.756;9.192;2024-01-15T14:00:16;2.20;;;0.60;;
11539;SDS011;5826;54.756;9.192;2024-01-15T14:02:44;1.80;;;0.60;;
11539;SDS011;5826;54.756;9.192;2024-01-15T14:05:11;1.27;;;0.60;;
11539;SDS011;5826;54.756;9.192;2024-01-15T14:07:41;1.50;;;0.53;;
11539;SDS011;5826;54.756;9.192;2024-01-15T14:10:09;1.43;;;0.57;;
11539;SDS011;5826;54.756;9.192;2024-01-15T14:12:35;2.57;;;0.90;;
11539;SDS011;5826;54.756;9.192;2024-01-15T14:15:04;1.60;;;0.60;;
11539;SDS011;5826;54.756;9.192;2024-01-15T14:17:30;1.57;;;0.60;;
11539;SDS011;5826;54.756;9.192;2024-01-15T14:19:56;1.93;;;0.90;;
11539;SDS011;5826;54.756;9.192;2024-01-15T14:22:22;0.90;;;0.67;;
11539;SDS011;5826;54.756;9.192;2024-01-15T14:24:47;1.07;;;0.60;;
11539;SDS011;5826;54.756;9.192;2024-01-15T14:27:13;1.53;;;0.70;;
11539;SDS011;5826;54.756;9.192;2024-01-15T14:29:39;2.63;;;0.80;;
11539;SDS011;5826;54.756;9.192;2024-01-15T14:32:05;2.77;;;0.70;;
11539;SDS011;5826;54.756;9.192;2024-01-15T14:34:30;1.93;;;0.70;;
11539;SDS011;5826;54.756;9.192;2024-01-15T14:36:56;1.97;;;0.70;;
11539;SDS011;5826;54.756;9.192;2024-01-15T14:39:22;2.00;;;0.60;;
11539;SDS011;5826;54.756;9.192;2024-01-15T14:41:48;1.63;;;0.60;;
11539;SDS011;5826;54.756;9.192;2024-01-15T14:44:14;3.50;;;0.80;;
11539;SDS011;5826;54.756;9.192;2024-01-15T14:46:39;3.70;;;0.80;;
11539;SDS011;5826;54.756;9.192;2024-01-15T14:49:05;0.83;;;0.50;;
11539;SDS011;5826;54.756;9.192;2024-01-15T14:51:31;1.33;;;0.63;;
11539;SDS011;5826;54.756;9.192;2024-01-15T14:53:56;3.00;;;0.70;;
11539;SDS011;5826;54.756;9.192;2024-01-15T14:56:22;1.83;;;0.80;;
11539;SDS011;5826;54.756;9.192;2024-01-15T14:58:48;1.73;;;0.70;;
11539;SDS011;5826;54.756;9.192;2024-01-15T15:01:13;2.60;;;0.80;;
11539;SDS011;5826;54.756;9.192;2024-01-15T15:03:39;3.80;;;0.87;;
11539;SDS011;5826;54.756;9.192;2024-01-15T15:06:05;2.20;;;0.97;;
11539;SDS011;5826;54.756;9.192;2024-01-15T15:08:32;2.63;;;1.00;;
11539;SDS011;5826;54.756;9.192;2024-01-15T15:10:58;4.50;;;2.70;;
11539;SDS011;5826;54.756;9.192;2024-01-15T15:13:24;7.40;;;3.23;;